首页
METAR-TAF:

METAR-TAF

机场 :

黃刀鎮, 西北特區, 加拿大

纬度: 62-28N, 经度: 114-27W, 海拔: 205米

当前天气观测

该预报发布于26分钟前的18:00 UTC
风速7节,风向,在西转西南之间变化
温度 20°C
湿度 53%
气压 999 hPa
能見度: 24.1公里
少量云层高于4000英尺
少量云层高于14000英尺
多云层高于22000英尺

METAR: CYZF 081800Z 19007KT 170V250 15SM FEW040 FEW140 BKN220 20/10 A2951 RMK SC1AC2CI5 SC TR SLP999 DENSITY ALT 1900FT

时间: 12:26 (18:26 UTC)

预报

该预报发布于48分钟前的17:38 UTC
预报有效从08日的 18点(UTC)到 09日的 18点(UTC)
风速8节,风向南转西南
能見度: 10公里
少量云层高于4000英尺
多云层高于22000英尺
从 08日的 2100点(UTC)
风速10节,风向西转西南
能見度: 10公里
散云层高于5000英尺
多云层高于20000英尺
附近有阵雨
成为
从 08日的 22点(UTC)到 08日的 24点(UTC)
风速10节,风向西
从 09日的 0300点(UTC)
风速10节,风向西北
能見度: 10公里
多云层高于18000英尺
从 09日的 1000点(UTC)
风速10节,风向北转西北,有时为20节阵风
能見度: 10公里
多云层高于15000英尺

TAF: CYZF 081738Z 0818/0918 20008KT P6SM FEW040 BKN220 FM082100 24010KT P6SM VCSH SCT050 BKN200 BECMG 0822/0824 28010KT FM090300 31010KT P6SM BKN180 FM091000 34010G20KT P6SM BKN150 RMK NXT FCST BY 090000Z

超过4000个机场的气象观测和天气预报(METAR&TAF报告)。

可查询的气象台以黄色和红色小点在地图上表示。

将鼠标移到小点上方,可查看气象台名称。

然后点击查看天气观测和预报。

如需切换地图:点击带黑十字的绿色按钮放大地图;点击带横线的绿色按钮缩小地图;或者点击绿色箭头查看邻近地区的地图。


METAR-TAF: